createdAt,value
2022-09-26T00:02:20.355Z,68.40
2022-09-26T00:04:47.038Z,68.30
2022-09-26T00:07:13.671Z,68.40
2022-09-26T00:09:40.483Z,68.40
2022-09-26T00:12:07.687Z,68.40
2022-09-26T00:14:34.480Z,68.40
2022-09-26T00:17:01.199Z,68.40
2022-09-26T00:19:27.916Z,68.40
2022-09-26T00:21:54.600Z,68.40
2022-09-26T00:24:21.243Z,68.40
2022-09-26T00:26:47.858Z,68.40
2022-09-26T00:29:14.743Z,68.40
2022-09-26T00:31:44.248Z,68.40
2022-09-26T00:34:12.408Z,68.40
2022-09-26T00:36:39.240Z,68.40
2022-09-26T00:39:07.120Z,68.30
2022-09-26T00:41:34.316Z,68.40
2022-09-26T00:44:01.103Z,68.50
2022-09-26T00:46:33.687Z,68.40
2022-09-26T00:49:06.382Z,68.50
2022-09-26T00:51:35.181Z,68.50
2022-09-26T00:54:02.033Z,68.50
2022-09-26T00:56:31.890Z,68.40
2022-09-26T00:59:22.331Z,68.40
2022-09-26T01:01:50.116Z,68.40
2022-09-26T01:04:17.205Z,68.40
2022-09-26T01:06:45.443Z,68.40
2022-09-26T01:09:14.109Z,68.40
2022-09-26T01:11:41.707Z,68.60
2022-09-26T01:14:10.401Z,68.40
2022-09-26T01:16:37.538Z,68.40
2022-09-26T01:19:08.219Z,68.50
2022-09-26T01:21:37.784Z,68.50
2022-09-26T01:24:22.070Z,68.40
2022-09-26T01:26:56.783Z,68.50
2022-09-26T01:29:26.468Z,68.40
2022-09-26T01:32:30.696Z,68.30
2022-09-26T01:35:16.066Z,68.40
2022-09-26T01:38:00.963Z,68.40
2022-09-26T01:40:33.416Z,68.40
2022-09-26T01:43:15.328Z,68.40
2022-09-26T01:45:41.966Z,68.30
2022-09-26T01:48:11.665Z,68.20
2022-09-26T01:50:43.782Z,68.20
2022-09-26T01:53:14.104Z,68.20
2022-09-26T01:55:42.126Z,68.30
2022-09-26T01:58:12.325Z,68.10
2022-09-26T02:00:40.735Z,68.30
2022-09-26T02:03:11.084Z,68.20
2022-09-26T02:05:46.798Z,68.30
2022-09-26T02:08:20.134Z,68.20
2022-09-26T02:10:49.230Z,68.30
2022-09-26T02:13:25.550Z,68.20
2022-09-26T02:15:55.379Z,68.20
2022-09-26T02:18:30.787Z,68.10
2022-09-26T02:21:12.920Z,68.20
2022-09-26T02:23:39.762Z,68.30
2022-09-26T02:26:06.648Z,68.40
2022-09-26T02:28:33.435Z,68.20
2022-09-26T02:31:01.315Z,68.30
2022-09-26T02:33:28.637Z,68.30
2022-09-26T02:35:55.630Z,68.20
2022-09-26T02:38:23.528Z,68.10
2022-09-26T02:40:52.893Z,68.10
2022-09-26T02:43:22.491Z,68.20
2022-09-26T02:46:06.127Z,68.20
2022-09-26T02:48:58.456Z,68.20
2022-09-26T02:51:41.447Z,68.10
2022-09-26T02:54:22.501Z,68.20
2022-09-26T02:57:10.874Z,68.20
2022-09-26T02:59:57.776Z,68.30
2022-09-26T03:02:29.845Z,68.30
2022-09-26T03:05:11.552Z,68.30
2022-09-26T03:07:59.579Z,68.30
2022-09-26T03:10:27.190Z,68.40
2022-09-26T03:12:54.835Z,69.00
2022-09-26T03:15:21.764Z,68.40
2022-09-26T03:17:52.165Z,68.40
2022-09-26T03:20:20.223Z,68.30
2022-09-26T03:22:47.219Z,68.20
2022-09-26T03:25:16.239Z,68.20
2022-09-26T03:27:46.008Z,68.40
2022-09-26T03:30:13.798Z,68.40
2022-09-26T03:32:40.715Z,68.30
2022-09-26T03:35:08.469Z,68.40
2022-09-26T03:37:37.283Z,68.30
2022-09-26T03:40:08.687Z,68.30
2022-09-26T03:42:35.918Z,68.30
2022-09-26T03:45:04.138Z,68.30
2022-09-26T03:47:31.374Z,68.40
2022-09-26T03:49:58.032Z,68.40
2022-09-26T03:52:24.989Z,68.20
2022-09-26T03:54:52.550Z,67.60
2022-09-26T03:57:21.012Z,67.50
2022-09-26T03:59:47.800Z,67.40
2022-09-26T04:02:14.512Z,67.50
2022-09-26T04:04:41.149Z,67.30
2022-09-26T04:07:08.120Z,67.50
2022-09-26T04:09:34.791Z,67.70
2022-09-26T04:12:01.536Z,67.90
2022-09-26T04:14:28.255Z,67.80
2022-09-26T04:16:54.854Z,67.70
2022-09-26T04:19:21.460Z,68.10
2022-09-26T04:21:48.558Z,68.10
2022-09-26T04:24:16.026Z,68.40
2022-09-26T04:26:43.709Z,68.40
2022-09-26T04:29:10.791Z,68.20
2022-09-26T04:31:37.856Z,68.00
2022-09-26T04:34:07.488Z,67.80
2022-09-26T04:36:34.102Z,67.80
2022-09-26T04:39:01.055Z,67.90
2022-09-26T04:41:28.840Z,67.70
2022-09-26T04:43:56.167Z,67.60
2022-09-26T04:46:29.628Z,67.60
2022-09-26T04:48:58.014Z,67.60
2022-09-26T04:51:25.374Z,67.70
2022-09-26T04:53:52.416Z,67.70
2022-09-26T04:56:21.068Z,67.80
2022-09-26T04:58:47.747Z,67.80
2022-09-26T05:01:15.882Z,67.70
2022-09-26T05:03:42.659Z,67.70
2022-09-26T05:06:09.834Z,67.70
2022-09-26T05:08:37.521Z,67.70
2022-09-26T05:11:04.524Z,67.80
2022-09-26T05:13:31.532Z,67.80
2022-09-26T05:16:02.218Z,67.90
2022-09-26T05:18:29.375Z,68.00
2022-09-26T05:20:56.890Z,67.90
2022-09-26T05:23:45.241Z,67.80
2022-09-26T05:26:23.624Z,67.90
2022-09-26T05:28:51.727Z,67.90
2022-09-26T05:31:19.237Z,67.90
2022-09-26T05:33:46.580Z,67.90
2022-09-26T05:36:13.719Z,67.90
2022-09-26T05:38:40.354Z,67.90
2022-09-26T05:41:06.980Z,68.00
2022-09-26T05:43:34.991Z,68.30
2022-09-26T05:46:05.883Z,67.90
2022-09-26T05:48:33.384Z,68.00
2022-09-26T05:51:09.939Z,67.80
2022-09-26T05:53:36.615Z,67.80
2022-09-26T05:56:03.881Z,67.80
2022-09-26T05:58:33.756Z,68.00
2022-09-26T06:01:01.340Z,67.90
2022-09-26T06:03:34.630Z,68.00
2022-09-26T06:06:02.382Z,67.80
2022-09-26T06:08:29.029Z,67.90
2022-09-26T06:11:03.239Z,68.00
2022-09-26T06:13:30.498Z,68.10
2022-09-26T06:16:00.593Z,67.90
2022-09-26T06:18:27.815Z,67.90
2022-09-26T06:20:54.439Z,68.60
2022-09-26T06:23:21.064Z,68.00
2022-09-26T06:25:47.655Z,68.00
2022-09-26T06:28:14.307Z,67.90
2022-09-26T06:30:40.984Z,68.20
2022-09-26T06:33:07.656Z,68.00
2022-09-26T06:35:34.402Z,68.00
2022-09-26T06:38:01.086Z,68.10
2022-09-26T06:40:29.089Z,68.00
2022-09-26T06:42:55.950Z,67.90
2022-09-26T06:45:22.610Z,67.90
2022-09-26T06:47:49.255Z,68.00
2022-09-26T06:50:16.683Z,68.00
2022-09-26T06:52:44.081Z,68.00
2022-09-26T06:55:10.947Z,69.20
2022-09-26T06:57:40.072Z,68.10
2022-09-26T07:00:08.427Z,68.00
2022-09-26T07:02:35.188Z,68.20
2022-09-26T07:05:02.707Z,68.00
2022-09-26T07:07:30.247Z,68.00
2022-09-26T07:09:57.000Z,67.80
2022-09-26T07:12:24.934Z,67.90
2022-09-26T07:14:53.842Z,68.00
2022-09-26T07:17:20.676Z,68.10
2022-09-26T07:19:50.510Z,68.10
2022-09-26T07:22:17.200Z,68.20
2022-09-26T07:24:48.919Z,68.10
2022-09-26T07:27:17.170Z,68.20
2022-09-26T07:29:45.928Z,68.20
2022-09-26T07:32:13.343Z,68.20
2022-09-26T07:34:40.814Z,68.00
2022-09-26T07:37:07.692Z,68.00
2022-09-26T07:39:34.310Z,68.20
2022-09-26T07:42:04.392Z,67.50
2022-09-26T07:47:36.499Z,68.30
2022-09-26T07:50:16.629Z,68.30
2022-09-26T07:52:44.634Z,68.20
2022-09-26T07:55:12.871Z,69.20
2022-09-26T07:57:39.818Z,68.50
2022-09-26T08:00:09.009Z,68.60
2022-09-26T08:02:36.045Z,68.30
2022-09-26T08:05:04.010Z,68.40
2022-09-26T08:07:31.240Z,68.30
2022-09-26T08:09:59.014Z,68.40
2022-09-26T08:12:27.066Z,68.30
2022-09-26T08:14:53.722Z,68.40
2022-09-26T08:17:20.587Z,68.30
2022-09-26T08:19:47.290Z,68.20
2022-09-26T08:22:14.602Z,68.30
2022-09-26T08:24:42.016Z,68.30
2022-09-26T08:27:09.937Z,68.30
2022-09-26T08:29:36.647Z,68.30
2022-09-26T08:32:04.160Z,68.40
2022-09-26T08:34:32.120Z,68.40
2022-09-26T08:36:58.812Z,68.30
2022-09-26T08:39:28.014Z,68.40
2022-09-26T08:42:05.099Z,68.50
2022-09-26T08:44:38.577Z,68.40
2022-09-26T08:47:22.146Z,68.40
2022-09-26T08:49:52.771Z,68.30
2022-09-26T08:52:22.587Z,68.30
2022-09-26T08:54:50.397Z,68.30
2022-09-26T08:57:32.284Z,68.30
2022-09-26T08:59:59.066Z,68.30
2022-09-26T09:02:26.210Z,68.20
2022-09-26T09:04:57.476Z,68.20
2022-09-26T09:07:25.218Z,68.10
2022-09-26T09:09:56.737Z,68.00
2022-09-26T09:12:32.787Z,67.90
2022-09-26T09:15:25.670Z,67.90
2022-09-26T09:18:05.730Z,67.90
2022-09-26T09:20:45.210Z,67.90
2022-09-26T09:23:11.905Z,68.00
2022-09-26T09:27:52.398Z,68.00
2022-09-26T09:28:46.835Z,68.00
2022-09-26T09:31:14.764Z,67.90
2022-09-26T09:33:47.537Z,67.90
2022-09-26T09:36:17.044Z,67.90
2022-09-26T09:38:45.260Z,67.80
2022-09-26T09:41:12.074Z,67.80
2022-09-26T09:43:56.154Z,67.80
2022-09-26T09:46:30.526Z,67.80
2022-09-26T09:49:12.211Z,67.70
2022-09-26T09:51:39.714Z,67.60
2022-09-26T09:54:24.068Z,67.60
2022-09-26T09:56:59.630Z,67.50
2022-09-26T09:59:37.371Z,67.40
2022-09-26T10:02:22.975Z,67.30
2022-09-26T10:04:56.614Z,67.40
2022-09-26T10:07:23.364Z,67.40
2022-09-26T10:09:51.828Z,67.30
2022-09-26T10:12:20.122Z,67.30
2022-09-26T10:14:56.766Z,67.30
2022-09-26T10:17:23.996Z,67.30
2022-09-26T10:19:50.994Z,67.10
2022-09-26T10:22:26.337Z,67.10
2022-09-26T10:24:59.130Z,67.20
2022-09-26T10:27:37.777Z,67.00
2022-09-26T10:30:21.944Z,67.10
2022-09-26T10:32:55.472Z,67.10
2022-09-26T10:35:25.267Z,67.00
2022-09-26T10:38:02.434Z,66.90
2022-09-26T10:40:45.409Z,66.60
2022-09-26T10:43:21.213Z,66.50
2022-09-26T10:45:54.861Z,66.60
2022-09-26T10:48:24.211Z,66.60
2022-09-26T10:50:52.091Z,66.60
2022-09-26T10:53:19.949Z,66.60
2022-09-26T10:55:49.583Z,66.60
2022-09-26T10:58:22.794Z,66.40
2022-09-26T11:00:50.689Z,66.30
2022-09-26T11:03:19.760Z,66.60
2022-09-26T11:05:56.445Z,66.50
2022-09-26T11:08:27.638Z,66.40
2022-09-26T11:10:55.355Z,66.30
2022-09-26T11:13:23.888Z,66.30
2022-09-26T11:16:03.686Z,66.30
2022-09-26T11:18:39.643Z,66.40
2022-09-26T11:21:28.223Z,66.50
2022-09-26T11:24:14.902Z,66.50
2022-09-26T11:27:08.112Z,66.60
2022-09-26T11:29:43.530Z,66.50
2022-09-26T11:32:17.469Z,66.40
2022-09-26T11:34:44.264Z,66.40
2022-09-26T11:37:13.729Z,66.40
2022-09-26T11:39:50.583Z,66.30
2022-09-26T11:42:28.738Z,66.10
2022-09-26T11:44:56.901Z,66.10
2022-09-26T11:47:34.364Z,66.10
2022-09-26T11:50:20.403Z,66.10
2022-09-26T11:52:56.047Z,66.10
2022-09-26T11:55:31.094Z,66.20
2022-09-26T11:58:10.207Z,66.20
2022-09-26T12:00:39.848Z,66.20
2022-09-26T12:03:17.215Z,66.20
2022-09-26T12:05:50.377Z,66.20
2022-09-26T12:08:36.697Z,66.20
2022-09-26T12:11:04.727Z,65.80
2022-09-26T12:13:35.008Z,65.50
2022-09-26T12:16:18.199Z,65.40
2022-09-26T12:18:54.205Z,65.40
2022-09-26T12:21:32.427Z,65.50
2022-09-26T12:24:19.563Z,65.50
2022-09-26T12:26:46.554Z,65.50
2022-09-26T12:29:21.260Z,65.60
2022-09-26T12:32:00.503Z,65.60
2022-09-26T12:34:37.218Z,65.40
2022-09-26T12:37:06.948Z,65.30
2022-09-26T12:40:03.636Z,65.40
2022-09-26T12:42:33.384Z,65.40
2022-09-26T12:45:18.711Z,65.40
2022-09-26T12:47:57.550Z,65.20
2022-09-26T12:50:25.143Z,65.10
2022-09-26T12:53:01.675Z,65.10
2022-09-26T12:55:36.258Z,65.20
2022-09-26T12:58:22.002Z,65.20
2022-09-26T13:01:05.315Z,65.30
2022-09-26T13:03:38.107Z,65.30
2022-09-26T13:06:24.632Z,65.40
2022-09-26T13:09:02.961Z,65.40
2022-09-26T13:11:32.758Z,65.40
2022-09-26T13:14:18.500Z,65.20
2022-09-26T13:16:56.108Z,65.30
2022-09-26T13:19:24.066Z,65.30
2022-09-26T13:21:54.345Z,65.40
2022-09-26T13:24:25.935Z,65.50
2022-09-26T13:26:57.048Z,65.40
2022-09-26T13:29:29.165Z,65.60
2022-09-26T13:32:16.427Z,65.60
2022-09-26T13:34:52.615Z,65.50
2022-09-26T13:37:34.307Z,65.40
2022-09-26T13:40:30.837Z,65.30
2022-09-26T13:43:07.883Z,65.50
2022-09-26T13:45:46.666Z,65.50
2022-09-26T13:48:16.787Z,65.30
2022-09-26T13:50:56.159Z,65.40
2022-09-26T13:53:26.920Z,65.50
2022-09-26T13:56:16.845Z,65.40
2022-09-26T13:58:43.570Z,65.20
2022-09-26T14:01:27.098Z,65.20
2022-09-26T14:04:20.119Z,65.30
2022-09-26T14:07:28.573Z,65.30
2022-09-26T14:10:01.541Z,65.30
2022-09-26T14:12:51.199Z,65.30
2022-09-26T14:15:25.304Z,65.40
2022-09-26T14:17:52.002Z,65.50
2022-09-26T14:20:27.588Z,65.40
2022-09-26T14:22:56.193Z,65.40
2022-09-26T14:25:41.834Z,65.40
2022-09-26T14:28:09.923Z,65.40
2022-09-26T14:30:37.612Z,65.50
2022-09-26T14:33:06.791Z,65.50
2022-09-26T14:35:34.913Z,65.50
2022-09-26T14:38:09.011Z,65.60
2022-09-26T14:40:39.189Z,65.70
2022-09-26T14:43:06.228Z,65.60
2022-09-26T14:45:32.786Z,65.30
2022-09-26T14:48:11.849Z,65.20
2022-09-26T14:50:50.250Z,65.20
2022-09-26T14:53:20.964Z,64.70
2022-09-26T14:55:59.367Z,65.20
2022-09-26T14:58:32.288Z,65.10
2022-09-26T15:01:02.432Z,64.50
2022-09-26T15:03:29.239Z,64.60
2022-09-26T15:05:58.764Z,64.30
2022-09-26T15:08:27.279Z,64.10
2022-09-26T15:10:55.882Z,64.00
2022-09-26T15:13:22.589Z,64.10
2022-09-26T15:15:49.345Z,64.10
2022-09-26T15:18:15.995Z,64.10
2022-09-26T15:20:44.622Z,64.20
2022-09-26T15:23:18.859Z,64.20
2022-09-26T15:25:45.813Z,64.10
2022-09-26T15:28:12.549Z,64.30
2022-09-26T15:30:40.772Z,64.40
2022-09-26T15:33:16.489Z,64.50
2022-09-26T15:35:51.971Z,64.50
2022-09-26T15:38:18.718Z,64.40
2022-09-26T15:40:58.564Z,64.50
2022-09-26T15:43:25.439Z,64.50
2022-09-26T15:45:58.514Z,64.60
2022-09-26T15:48:25.379Z,64.70
2022-09-26T15:50:54.031Z,64.60
2022-09-26T15:53:35.914Z,64.80
2022-09-26T15:56:05.742Z,64.90
2022-09-26T15:58:35.370Z,64.80
2022-09-26T16:01:02.150Z,64.70
2022-09-26T16:03:28.831Z,64.80
2022-09-26T16:05:55.526Z,64.80
2022-09-26T16:08:23.618Z,64.70
2022-09-26T16:10:55.057Z,64.80
2022-09-26T16:13:25.365Z,64.70
2022-09-26T16:16:21.235Z,64.50
2022-09-26T16:18:55.726Z,64.30
2022-09-26T16:21:26.700Z,64.10
2022-09-26T16:23:54.993Z,63.90
2022-09-26T16:26:21.676Z,64.00
2022-09-26T16:28:52.842Z,63.90
2022-09-26T16:31:42.502Z,63.90
2022-09-26T16:34:21.225Z,63.80
2022-09-26T16:36:48.042Z,63.80
2022-09-26T16:39:20.314Z,64.50
2022-09-26T16:42:01.693Z,63.90
2022-09-26T16:44:37.698Z,64.10
2022-09-26T16:47:06.642Z,64.10
2022-09-26T16:49:34.576Z,64.10
2022-09-26T16:52:20.635Z,64.20
2022-09-26T16:54:47.606Z,64.20
2022-09-26T16:57:24.996Z,64.20
2022-09-26T16:59:52.925Z,64.30
2022-09-26T17:02:20.913Z,64.40
2022-09-26T17:04:48.539Z,64.40
2022-09-26T17:07:15.394Z,64.30
2022-09-26T17:09:42.880Z,64.60
2022-09-26T17:12:15.685Z,64.50
2022-09-26T17:14:43.250Z,64.60
2022-09-26T17:17:14.046Z,64.70
2022-09-26T17:19:43.983Z,64.50
2022-09-26T17:22:13.862Z,64.50
2022-09-26T17:24:41.704Z,64.60
2022-09-26T17:27:12.492Z,64.70
2022-09-26T17:29:42.277Z,64.80
2022-09-26T17:32:11.779Z,64.80
2022-09-26T17:34:38.479Z,64.90
2022-09-26T17:37:05.199Z,65.00
2022-09-26T17:39:31.843Z,64.90
2022-09-26T17:41:59.046Z,64.90
2022-09-26T17:44:25.986Z,64.90
2022-09-26T17:46:54.527Z,64.80
2022-09-26T17:49:31.611Z,64.90
2022-09-26T17:52:01.050Z,64.90
2022-09-26T17:54:29.701Z,64.90
2022-09-26T17:56:56.622Z,64.90
2022-09-26T17:59:24.355Z,65.00
2022-09-26T18:01:52.727Z,65.00
2022-09-26T18:04:20.691Z,65.00
2022-09-26T18:06:47.391Z,65.10
2022-09-26T18:09:16.761Z,65.10
2022-09-26T18:11:44.498Z,65.00
2022-09-26T18:14:15.431Z,65.00
2022-09-26T18:16:46.615Z,65.00
2022-09-26T18:19:13.239Z,65.10
2022-09-26T18:21:40.221Z,65.00
2022-09-26T18:24:10.924Z,64.90
2022-09-26T18:26:42.103Z,65.00
2022-09-26T18:29:10.935Z,65.00
2022-09-26T18:31:38.862Z,65.10
2022-09-26T18:34:06.047Z,64.60
2022-09-26T18:36:33.236Z,64.70
2022-09-26T18:39:00.099Z,64.70
2022-09-26T18:41:27.272Z,64.90
2022-09-26T18:43:55.115Z,64.70
2022-09-26T18:46:23.524Z,64.50
2022-09-26T18:48:50.884Z,64.70
2022-09-26T18:51:17.966Z,64.70
2022-09-26T18:53:44.889Z,64.50
2022-09-26T18:56:30.113Z,64.70
2022-09-26T18:58:57.529Z,64.80
2022-09-26T19:01:30.030Z,64.60
2022-09-26T19:04:01.572Z,64.70
2022-09-26T19:06:47.425Z,64.60
2022-09-26T19:09:19.135Z,64.70
2022-09-26T19:11:46.143Z,64.70
2022-09-26T19:14:17.457Z,64.70
2022-09-26T19:16:44.917Z,64.50
2022-09-26T19:19:12.022Z,64.30
2022-09-26T19:21:58.591Z,64.60
2022-09-26T19:24:37.491Z,64.50
2022-09-26T19:27:06.636Z,64.40
2022-09-26T19:29:42.551Z,64.40
2022-09-26T19:32:17.674Z,64.50
2022-09-26T19:34:47.165Z,64.40
2022-09-26T19:37:14.089Z,64.40
2022-09-26T19:39:40.942Z,63.90
2022-09-26T19:42:07.639Z,64.20
2022-09-26T19:44:41.904Z,64.30
2022-09-26T19:47:14.245Z,64.10
2022-09-26T19:49:41.442Z,64.70
2022-09-26T19:52:13.357Z,64.70
2022-09-26T19:54:40.000Z,64.40
2022-09-26T19:57:13.653Z,64.40
2022-09-26T19:59:40.275Z,64.30
2022-09-26T20:02:17.485Z,64.40
2022-09-26T20:04:44.543Z,64.40
2022-09-26T20:07:15.423Z,64.30
2022-09-26T20:09:42.405Z,64.20
2022-09-26T20:12:09.340Z,63.50
2022-09-26T20:14:35.959Z,63.90
2022-09-26T20:17:06.082Z,64.10
2022-09-26T20:19:34.520Z,64.00
2022-09-26T20:22:02.532Z,64.30
2022-09-26T20:24:30.242Z,64.30
2022-09-26T20:26:58.179Z,64.20
2022-09-26T20:29:24.999Z,64.30
2022-09-26T20:31:51.685Z,64.30
2022-09-26T20:34:18.346Z,64.20
2022-09-26T20:36:49.610Z,64.10
2022-09-26T20:39:18.182Z,64.10
2022-09-26T20:41:44.822Z,64.20
2022-09-26T20:44:13.738Z,64.10
2022-09-26T20:46:43.282Z,64.20
2022-09-26T20:49:14.871Z,64.20
2022-09-26T20:51:41.575Z,64.50
2022-09-26T20:54:19.066Z,64.30
2022-09-26T20:56:48.897Z,64.40
2022-09-26T20:59:15.672Z,64.40
2022-09-26T21:01:42.420Z,64.50
2022-09-26T21:04:12.590Z,64.50
2022-09-26T21:06:39.234Z,64.10
2022-09-26T21:09:07.120Z,63.90
2022-09-26T21:11:33.769Z,63.60
2022-09-26T21:14:00.412Z,63.30
2022-09-26T21:16:27.234Z,63.10
2022-09-26T21:18:54.035Z,63.00
2022-09-26T21:21:28.602Z,62.90
2022-09-26T21:23:55.304Z,62.80
2022-09-26T21:26:23.962Z,62.70
2022-09-26T21:28:51.175Z,62.70
2022-09-26T21:31:23.882Z,62.60
2022-09-26T21:33:50.995Z,62.50
2022-09-26T21:36:19.477Z,62.50
2022-09-26T21:38:46.138Z,62.50
2022-09-26T21:41:13.097Z,62.50
2022-09-26T21:43:41.889Z,62.50
2022-09-26T21:46:08.845Z,62.50
2022-09-26T21:48:35.626Z,62.50
2022-09-26T21:51:03.190Z,62.60
2022-09-26T21:53:32.928Z,62.50
2022-09-26T21:56:06.492Z,62.60
2022-09-26T21:58:35.120Z,62.70
2022-09-26T22:01:01.837Z,62.70
2022-09-26T22:03:28.515Z,62.80
2022-09-26T22:05:55.102Z,62.80
2022-09-26T22:08:21.773Z,63.00
2022-09-26T22:10:48.408Z,62.90
2022-09-26T22:13:15.037Z,62.90
2022-09-26T22:15:41.684Z,62.90
2022-09-26T22:18:08.402Z,63.00
2022-09-26T22:20:35.305Z,63.10
2022-09-26T22:23:02.004Z,63.20
2022-09-26T22:25:28.643Z,63.20
2022-09-26T22:27:55.524Z,63.30
2022-09-26T22:30:25.822Z,63.30
2022-09-26T22:32:52.515Z,63.30
2022-09-26T22:35:19.174Z,63.30
2022-09-26T22:37:46.330Z,63.40
2022-09-26T22:40:13.026Z,63.30
2022-09-26T22:42:39.719Z,63.30
2022-09-26T22:45:06.546Z,63.40
2022-09-26T22:47:33.722Z,63.40
2022-09-26T22:50:00.548Z,63.50
2022-09-26T22:52:27.187Z,63.50
2022-09-26T22:54:53.891Z,63.40
2022-09-26T22:57:20.529Z,63.50
2022-09-26T22:59:47.274Z,63.60
2022-09-26T23:02:13.963Z,63.70
2022-09-26T23:04:49.499Z,63.70
2022-09-26T23:07:17.872Z,63.70
2022-09-26T23:09:44.548Z,63.70
2022-09-26T23:12:11.643Z,63.70
2022-09-26T23:14:38.335Z,63.70
2022-09-26T23:17:05.231Z,63.70
2022-09-26T23:19:32.583Z,63.70
2022-09-26T23:21:59.246Z,63.80
2022-09-26T23:24:25.864Z,63.90
2022-09-26T23:26:54.547Z,63.90
2022-09-26T23:29:21.210Z,63.90
2022-09-26T23:31:47.826Z,63.90
2022-09-26T23:34:14.525Z,63.90
2022-09-26T23:36:41.212Z,63.90
2022-09-26T23:39:07.966Z,64.00
2022-09-26T23:41:34.849Z,64.00
2022-09-26T23:44:01.594Z,63.90
2022-09-26T23:46:28.360Z,64.00
2022-09-26T23:48:55.022Z,64.10
2022-09-26T23:51:21.683Z,64.00
2022-09-26T23:53:48.522Z,64.00
2022-09-26T23:56:15.190Z,64.10
2022-09-26T23:58:42.003Z,64.00
